首页
METAR-TAF:

METAR-TAF

机场 :

Springfield-Branson Regional Airport

斯普林菲尔德, 密蘇里州, 美国

纬度: 37-14-23N, 经度: 093-23-23W, 海拔: 386米

当前天气观测

该预报发布于21分钟前的03:52 UTC
风速7节,风向
温度 -6°C
湿度 62%
气压 1039 hPa
能見度: 16.1公里
天空无云

METAR: KSGF 210352Z 36007KT 10SM CLR M06/M12 A3069 RMK AO2 SLP410 T10611122

时间: 22:13 (04:13 UTC)

预报

该预报发布于4小时和38分钟前的23:35 UTC
预报有效从21日的 00点(UTC)到 21日的 24点(UTC)
风速11节,风向
能見度: 10公里
天空无云
从 21日的 0400点(UTC)
风速6节,风向
能見度: 10公里
天空无云
从 21日的 0700点(UTC)
风速3节,风向多变
能見度: 10公里
天空无云
从 21日的 1600点(UTC)
风速8节,风向
能見度: 10公里
天空无云

TAF: KSGF 202335Z 2100/2124 36011KT P6SM SKC FM210400 01006KT P6SM SKC FM210700 VRB03KT P6SM SKC FM211600 19008KT P6SM SKC

超过4000个机场的气象观测和天气预报(METAR&TAF报告)。

可查询的气象台以黄色和红色小点在地图上表示。

将鼠标移到小点上方,可查看气象台名称。

然后点击查看天气观测和预报。

如需切换地图:点击带黑十字的绿色按钮放大地图;点击带横线的绿色按钮缩小地图;或者点击绿色箭头查看邻近地区的地图。


METAR-TAF: